Time;durP1;ratioP1;P1;durP2;ratioP2;P2;SDS_P1;SDS_P2;PMS_P1;PMS_P2;Temp;Humidity;BMP_temperature;BMP_pressure;BME280_temperature;BME280_humidity;BME280_pressure;Samples;Min_cycle;Max_cycle;Signal;HPM_P1;HPM_P2
2023/05/04 00:00:11;;;;;;;3.38;2.33;;;15.70;82.10;;;;;;10130172;28;20064;-62
2023/05/04 00:05:04;;;;;;;4.68;2.83;;;15.60;82.20;;;;;;10142085;28;20040;-61
2023/05/04 00:09:55;;;;;;;3.05;1.60;;;15.60;82.50;;;;;;10145066;28;20435;-62
2023/05/04 00:14:46;;;;;;;3.35;1.98;;;15.40;82.90;;;;;;10124825;28;20111;-65
2023/05/04 00:19:38;;;;;;;2.50;1.83;;;15.30;83.40;;;;;;10158993;28;20123;-63
2023/05/04 00:24:29;;;;;;;3.55;2.20;;;15.30;83.50;;;;;;10180181;28;20031;-65
2023/05/04 00:29:20;;;;;;;3.72;2.20;;;15.30;83.30;;;;;;10165449;28;20063;-65
2023/05/04 00:34:10;;;;;;;6.30;2.42;;;15.10;83.70;;;;;;10175044;28;20032;-64
2023/05/04 00:39:01;;;;;;;3.72;2.22;;;15.20;83.80;;;;;;10172738;28;20025;-63
2023/05/04 00:43:52;;;;;;;4.13;1.80;;;15.00;84.10;;;;;;10144472;28;20020;-63
2023/05/04 00:48:47;;;;;;;3.55;1.73;;;15.00;84.30;;;;;;10143217;28;20131;-59
2023/05/04 00:53:38;;;;;;;4.93;2.47;;;15.00;84.40;;;;;;10128300;28;20551;-64
2023/05/04 00:58:31;;;;;;;4.40;2.65;;;14.90;84.70;;;;;;10144006;28;20153;-62
2023/05/04 01:03:21;;;;;;;4.03;2.85;;;14.90;84.90;;;;;;10145653;28;20048;-63
2023/05/04 01:08:18;;;;;;;4.22;2.17;;;14.80;85.80;;;;;;10143392;28;20032;-59
2023/05/04 01:13:15;;;;;;;2.70;2.17;;;14.80;85.50;;;;;;10164974;28;20466;-59
2023/05/04 01:18:06;;;;;;;3.78;2.40;;;14.80;85.60;;;;;;10155162;28;20024;-61
2023/05/04 01:22:56;;;;;;;3.95;2.33;;;14.70;85.70;;;;;;10167560;28;20028;-59
2023/05/04 01:28:11;;;;;;;3.13;1.67;;;14.80;85.80;;;;;;10152923;28;20036;-59
2023/05/04 01:33:03;;;;;;;2.97;2.20;;;14.70;86.10;;;;;;10171855;28;20024;-59
2023/05/04 01:37:54;;;;;;;3.75;2.22;;;14.60;87.00;;;;;;10158466;28;20112;-61
2023/05/04 01:42:44;;;;;;;3.20;2.15;;;14.70;86.90;;;;;;10141920;28;20108;-62
2023/05/04 01:47:35;;;;;;;5.95;2.10;;;14.60;86.60;;;;;;10141149;28;20030;-59
2023/05/04 01:52:26;;;;;;;8.52;2.92;;;14.60;86.60;;;;;;10140999;28;20053;-58
2023/05/04 01:57:16;;;;;;;4.45;2.20;;;14.50;87.00;;;;;;10141850;28;20073;-59
2023/05/04 02:02:07;;;;;;;4.15;2.30;;;14.40;87.00;;;;;;10143848;28;20145;-58
2023/05/04 02:06:57;;;;;;;3.90;2.20;;;14.50;87.10;;;;;;10140734;28;20127;-62
2023/05/04 02:11:48;;;;;;;5.13;2.13;;;14.50;87.20;;;;;;10153990;28;20067;-61
2023/05/04 02:16:39;;;;;;;2.65;2.08;;;14.40;87.30;;;;;;10167916;28;20443;-59
2023/05/04 02:21:29;;;;;;;4.88;2.13;;;14.30;87.70;;;;;;10153154;28;20032;-61
2023/05/04 02:26:20;;;;;;;6.97;2.50;;;14.20;88.00;;;;;;10171685;28;20047;-59
2023/05/04 02:31:11;;;;;;;3.03;2.03;;;14.10;88.40;;;;;;10154273;28;20085;-61
2023/05/04 02:36:01;;;;;;;3.55;2.25;;;14.10;88.40;;;;;;10151317;28;20457;-59
2023/05/04 02:40:52;;;;;;;10.23;3.72;;;14.10;88.50;;;;;;10142727;28;20475;-60
2023/05/04 02:45:43;;;;;;;3.40;2.38;;;14.00;88.70;;;;;;10139675;28;20052;-59
2023/05/04 02:50:33;;;;;;;9.20;2.42;;;14.00;88.60;;;;;;10138612;28;20063;-59
2023/05/04 02:55:24;;;;;;;4.50;2.22;;;14.00;88.90;;;;;;10138956;28;20436;-58
2023/05/04 03:00:15;;;;;;;5.10;3.40;;;13.90;89.10;;;;;;10139962;28;20033;-58
2023/05/04 03:05:06;;;;;;;3.50;2.33;;;13.90;89.30;;;;;;10130097;28;20048;-62
2023/05/04 03:09:57;;;;;;;4.20;2.25;;;13.80;89.60;;;;;;10122913;28;20142;-60
2023/05/04 03:14:47;;;;;;;3.88;2.28;;;13.90;89.60;;;;;;10160825;28;20029;-60
2023/05/04 03:19:38;;;;;;;3.72;2.63;;;13.70;89.70;;;;;;10147525;28;20029;-60
2023/05/04 03:24:28;;;;;;;3.78;2.33;;;13.70;89.90;;;;;;10160170;28;20509;-60
2023/05/04 03:29:19;;;;;;;5.35;2.92;;;13.50;90.20;;;;;;10166209;28;20032;-61
2023/05/04 03:34:11;;;;;;;3.85;2.30;;;13.60;90.20;;;;;;10137966;28;20429;-65
2023/05/04 03:39:02;;;;;;;2.58;2.13;;;13.60;90.20;;;;;;10161717;28;20063;-60
2023/05/04 03:43:52;;;;;;;9.18;2.90;;;13.50;90.30;;;;;;10176720;28;20047;-63
2023/05/04 03:48:43;;;;;;;3.83;2.78;;;13.50;90.40;;;;;;10177761;28;20055;-59
2023/05/04 03:53:34;;;;;;;3.75;2.25;;;13.40;90.40;;;;;;10145461;28;20040;-59
2023/05/04 03:58:25;;;;;;;4.40;2.40;;;13.40;90.60;;;;;;10137571;28;20498;-61
2023/05/04 04:03:15;;;;;;;6.18;2.95;;;13.30;90.70;;;;;;10141497;28;20100;-59
2023/05/04 04:08:06;;;;;;;4.13;2.03;;;13.40;90.70;;;;;;10137285;28;20242;-59
2023/05/04 04:12:56;;;;;;;6.25;3.22;;;13.30;90.70;;;;;;10156639;28;20060;-61
2023/05/04 04:17:47;;;;;;;5.35;2.67;;;13.10;91.00;;;;;;10155377;28;20478;-60
2023/05/04 04:22:38;;;;;;;3.05;2.53;;;13.10;91.00;;;;;;10159702;28;20032;-60
2023/05/04 04:27:28;;;;;;;7.00;2.75;;;13.00;91.20;;;;;;10150114;28;20036;-59
2023/05/04 04:32:20;;;;;;;4.70;3.00;;;13.00;91.20;;;;;;10150531;28;20033;-59
2023/05/04 04:37:10;;;;;;;6.82;3.58;;;13.00;91.30;;;;;;10136781;28;20036;-60
2023/05/04 04:42:01;;;;;;;3.90;2.65;;;12.90;91.40;;;;;;10167035;28;20024;-60
2023/05/04 04:46:52;;;;;;;5.18;3.40;;;12.80;91.60;;;;;;10174951;28;20040;-61
2023/05/04 04:51:43;;;;;;;5.55;3.38;;;12.80;91.70;;;;;;10167446;28;20048;-59
2023/05/04 04:56:33;;;;;;;6.82;3.33;;;12.70;91.90;;;;;;10144078;28;20047;-63
2023/05/04 05:01:25;;;;;;;5.40;3.08;;;12.70;91.90;;;;;;10153968;28;20032;-62
2023/05/04 05:06:15;;;;;;;4.07;3.00;;;12.70;92.00;;;;;;10124210;28;20037;-65
2023/05/04 05:11:06;;;;;;;9.07;3.70;;;12.80;92.10;;;;;;10142885;28;20038;-64
2023/05/04 05:15:57;;;;;;;7.78;3.33;;;12.70;92.10;;;;;;10170834;28;20373;-62
2023/05/04 05:20:48;;;;;;;6.85;3.58;;;12.80;92.00;;;;;;10132335;28;20471;-61
2023/05/04 05:25:38;;;;;;;6.40;3.42;;;12.90;92.10;;;;;;10142466;28;20677;-66
2023/05/04 05:30:29;;;;;;;6.90;3.35;;;13.00;92.00;;;;;;10142459;28;20218;-62
2023/05/04 05:35:20;;;;;;;7.65;3.42;;;13.10;91.90;;;;;;10142438;28;20021;-59
2023/05/04 05:40:12;;;;;;;6.38;3.17;;;13.20;92.00;;;;;;10174498;28;20042;-63
2023/05/04 05:45:03;;;;;;;5.40;3.38;;;13.10;92.00;;;;;;10174921;28;20512;-61
2023/05/04 05:49:55;;;;;;;6.45;3.45;;;13.10;92.20;;;;;;10174214;28;20596;-66
2023/05/04 05:54:45;;;;;;;5.25;3.35;;;13.30;92.00;;;;;;10147064;28;20533;-67
2023/05/04 05:59:36;;;;;;;5.63;3.67;;;13.30;92.20;;;;;;10141909;28;20032;-60
2023/05/04 06:04:27;;;;;;;6.30;3.40;;;13.50;92.20;;;;;;10141100;28;20089;-66
2023/05/04 06:09:18;;;;;;;6.82;4.32;;;13.60;92.20;;;;;;10170713;28;20390;-66
2023/05/04 06:14:08;;;;;;;7.20;3.97;;;13.70;92.20;;;;;;10152655;28;20124;-62
2023/05/04 06:18:59;;;;;;;5.43;3.47;;;13.90;92.20;;;;;;10146525;28;20035;-60
2023/05/04 06:23:49;;;;;;;7.43;3.92;;;13.70;92.30;;;;;;10139859;28;20032;-59
2023/05/04 06:28:40;;;;;;;5.60;3.40;;;13.70;92.50;;;;;;10139817;28;20049;-60
2023/05/04 06:33:31;;;;;;;6.93;4.03;;;13.60;92.70;;;;;;10155801;28;20032;-62
2023/05/04 06:38:21;;;;;;;6.47;3.90;;;13.80;92.70;;;;;;10129354;28;20032;-61
2023/05/04 06:43:12;;;;;;;7.38;4.18;;;14.20;92.40;;;;;;10134992;28;20020;-63
2023/05/04 06:48:03;;;;;;;7.72;3.78;;;14.40;92.30;;;;;;10130392;28;20044;-65
2023/05/04 06:53:05;;;;;;;6.13;3.60;;;14.40;92.40;;;;;;10125126;28;20039;-64
2023/05/04 06:57:56;;;;;;;5.55;3.55;;;14.50;92.50;;;;;;10124001;28;20068;-61
2023/05/04 07:02:46;;;;;;;5.72;3.50;;;14.70;92.50;;;;;;10132847;28;20055;-64
2023/05/04 07:07:37;;;;;;;6.50;4.07;;;14.80;92.40;;;;;;10108738;28;20280;-59
2023/05/04 07:12:27;;;;;;;6.88;3.80;;;14.90;92.50;;;;;;10132940;28;20021;-60
2023/05/04 07:17:20;;;;;;;6.25;4.15;;;15.10;92.50;;;;;;10113506;28;20077;-61
2023/05/04 07:22:11;;;;;;;6.20;3.55;;;15.10;92.50;;;;;;10129132;28;20024;-60
2023/05/04 07:27:02;;;;;;;7.70;3.78;;;15.20;92.40;;;;;;10121984;28;20040;-60
2023/05/04 07:31:52;;;;;;;8.40;4.57;;;15.40;92.40;;;;;;10157151;28;20111;-64
2023/05/04 07:36:43;;;;;;;7.72;4.07;;;15.50;92.20;;;;;;10136235;28;20139;-62
2023/05/04 07:41:35;;;;;;;9.63;4.50;;;15.60;92.20;;;;;;10147959;28;20021;-61
2023/05/04 07:46:26;;;;;;;9.88;4.25;;;15.70;92.30;;;;;;10126162;28;20143;-63
2023/05/04 07:51:17;;;;;;;7.97;4.65;;;15.90;92.10;;;;;;10125027;28;21024;-59
2023/05/04 07:56:10;;;;;;;9.23;5.47;;;16.00;92.00;;;;;;10114185;28;20316;-61
2023/05/04 08:01:00;;;;;;;7.13;4.45;;;16.00;92.00;;;;;;10126945;28;20548;-63
2023/05/04 08:05:51;;;;;;;7.85;4.10;;;16.20;92.00;;;;;;10123756;28;20047;-61
2023/05/04 08:10:42;;;;;;;8.07;4.50;;;16.30;91.80;;;;;;10125180;28;20113;-62
2023/05/04 08:15:33;;;;;;;8.02;4.80;;;16.40;91.80;;;;;;10134613;28;20378;-61
2023/05/04 08:20:23;;;;;;;8.85;4.68;;;16.50;91.80;;;;;;10135691;28;20020;-61
2023/05/04 08:25:14;;;;;;;7.45;5.07;;;16.70;91.60;;;;;;10133628;28;20182;-61
2023/05/04 08:30:05;;;;;;;6.82;5.05;;;16.70;91.60;;;;;;10133723;28;20038;-64
2023/05/04 08:34:56;;;;;;;13.10;5.75;;;16.90;91.60;;;;;;10133480;28;20454;-61
2023/05/04 08:39:47;;;;;;;9.38;4.25;;;17.00;91.50;;;;;;10128809;28;20031;-62
2023/05/04 08:44:37;;;;;;;7.28;4.95;;;17.20;91.30;;;;;;10133869;28;20042;-62
2023/05/04 08:49:29;;;;;;;9.10;5.07;;;17.40;91.20;;;;;;10132048;28;20616;-62
2023/05/04 08:54:22;;;;;;;7.72;5.13;;;17.30;91.30;;;;;;10132749;28;20027;-60
2023/05/04 08:59:23;;;;;;;5.60;3.75;;;17.50;91.20;;;;;;10134748;28;20050;-62
2023/05/04 09:04:14;;;;;;;10.20;5.53;;;17.60;91.10;;;;;;10133193;28;20104;-60
2023/05/04 09:09:05;;;;;;;6.10;4.50;;;17.70;91.00;;;;;;10131902;28;20139;-62
2023/05/04 09:13:56;;;;;;;9.52;4.97;;;17.80;90.90;;;;;;10134856;28;20017;-61
2023/05/04 09:18:47;;;;;;;7.10;4.13;;;18.00;90.80;;;;;;10133732;28;20505;-64
2023/05/04 09:23:47;;;;;;;6.72;4.43;;;18.20;90.70;;;;;;10131529;28;20024;-64
2023/05/04 09:28:38;;;;;;;8.60;4.65;;;18.50;90.60;;;;;;10130080;28;20038;-64
2023/05/04 09:33:29;;;;;;;9.38;5.15;;;18.50;90.60;;;;;;10133517;28;20143;-63
2023/05/04 09:38:30;;;;;;;6.78;4.65;;;18.50;90.70;;;;;;10129989;28;20090;-61
2023/05/04 09:43:22;;;;;;;8.45;4.88;;;18.60;90.60;;;;;;10129966;28;20543;-61
2023/05/04 09:48:20;;;;;;;7.38;4.50;;;18.80;90.60;;;;;;10136421;28;20078;-65
2023/05/04 09:53:12;;;;;;;8.18;5.75;;;18.80;90.60;;;;;;10130435;28;20033;-61
2023/05/04 09:58:04;;;;;;;6.88;4.43;;;18.90;90.50;;;;;;10133783;28;20109;-65
2023/05/04 10:02:55;;;;;;;6.40;4.47;;;19.00;90.50;;;;;;10129747;28;20040;-64
2023/05/04 10:07:45;;;;;;;6.90;4.78;;;19.20;90.40;;;;;;10131873;28;20039;-65
2023/05/04 10:12:36;;;;;;;6.32;4.47;;;19.20;90.30;;;;;;10126315;28;20025;-63
2023/05/04 10:17:42;;;;;;;5.70;4.45;;;19.20;90.30;;;;;;10133557;28;20040;-64
2023/05/04 10:22:53;;;;;;;5.93;4.10;;;19.30;90.30;;;;;;10156291;28;20028;-62
2023/05/04 10:28:02;;;;;;;6.50;4.55;;;19.50;90.20;;;;;;10170320;28;20036;-63
2023/05/04 10:32:56;;;;;;;8.57;3.83;;;19.40;90.10;;;;;;10124297;28;20406;-62
2023/05/04 10:37:54;;;;;;;6.05;4.05;;;19.60;90.00;;;;;;10127166;28;20074;-60
2023/05/04 10:42:45;;;;;;;5.03;3.85;;;19.60;89.80;;;;;;10128693;28;20021;-64
2023/05/04 10:47:39;;;;;;;5.03;4.53;;;19.70;89.80;;;;;;10127533;28;20040;-62
2023/05/04 10:52:45;;;;;;;7.13;5.10;;;19.90;89.70;;;;;;10130444;28;20036;-64
2023/05/04 10:57:49;;;;;;;4.18;3.72;;;19.90;89.50;;;;;;10123097;28;20078;-61
2023/05/04 11:02:40;;;;;;;3.72;3.10;;;20.20;89.20;;;;;;10135457;28;20517;-64
2023/05/04 11:07:36;;;;;;;7.47;3.60;;;20.30;89.40;;;;;;10161578;28;20087;-66
2023/05/04 11:12:27;;;;;;;5.13;3.60;;;20.30;88.80;;;;;;10169694;28;20371;-62
2023/05/04 11:17:17;;;;;;;4.03;2.70;;;20.40;88.60;;;;;;10153709;28;20118;-61
2023/05/04 11:22:08;;;;;;;4.05;2.58;;;20.50;88.20;;;;;;10134964;28;20107;-62
2023/05/04 11:27:00;;;;;;;4.78;2.58;;;20.60;87.90;;;;;;10128502;28;20047;-60
2023/05/04 11:31:54;;;;;;;5.20;2.95;;;20.80;87.70;;;;;;10134772;28;20481;-62
2023/05/04 11:36:46;;;;;;;5.28;3.00;;;20.80;87.30;;;;;;10106321;28;20035;-67
2023/05/04 11:41:37;;;;;;;3.65;2.70;;;20.90;87.10;;;;;;10134522;28;20067;-64
2023/05/04 11:46:28;;;;;;;6.05;2.55;;;21.10;86.80;;;;;;10131454;28;20505;-69
2023/05/04 11:51:23;;;;;;;4.68;2.22;;;21.10;86.70;;;;;;10141317;28;20037;-66
2023/05/04 11:56:14;;;;;;;5.25;3.15;;;21.40;86.30;;;;;;10148347;28;20401;-65
2023/05/04 12:01:04;;;;;;;3.75;2.30;;;21.70;86.00;;;;;;10144954;28;20031;-63
2023/05/04 12:05:56;;;;;;;3.13;2.17;;;21.70;85.80;;;;;;10142244;28;20056;-65
2023/05/04 12:10:47;;;;;;;8.10;2.67;;;21.90;85.60;;;;;;10135347;28;20031;-64
2023/05/04 12:15:37;;;;;;;6.15;3.30;;;22.30;85.40;;;;;;10138846;28;20395;-65
2023/05/04 12:20:29;;;;;;;5.50;2.63;;;22.60;85.40;;;;;;10137760;28;20961;-62
2023/05/04 12:25:20;;;;;;;3.67;2.13;;;22.90;85.10;;;;;;10139412;28;20055;-62
2023/05/04 12:30:11;;;;;;;4.95;3.00;;;23.40;85.10;;;;;;10140865;28;20120;-64
2023/05/04 12:35:03;;;;;;;5.07;2.42;;;23.70;85.00;;;;;;10142967;28;20044;-61
2023/05/04 12:39:53;;;;;;;2.63;1.80;;;23.90;85.20;;;;;;10140623;28;20501;-60
2023/05/04 12:44:44;;;;;;;2.50;2.03;;;24.20;85.10;;;;;;10140902;28;20039;-61
2023/05/04 12:49:34;;;;;;;2.13;1.98;;;24.70;84.60;;;;;;10144912;28;20055;-63
2023/05/04 12:54:25;;;;;;;4.95;2.92;;;25.20;84.50;;;;;;10139925;28;20025;-63
2023/05/04 12:59:16;;;;;;;4.82;2.50;;;25.90;84.00;;;;;;10138744;28;20151;-63
2023/05/04 13:04:06;;;;;;;2.60;2.40;;;26.60;83.30;;;;;;10139164;28;20036;-62
2023/05/04 13:08:57;;;;;;;3.33;2.08;;;27.20;82.40;;;;;;10148280;28;20121;-62
2023/05/04 13:13:48;;;;;;;3.30;2.17;;;28.80;80.00;;;;;;10120884;28;20405;-60
2023/05/04 13:18:38;;;;;;;2.47;2.05;;;29.90;77.80;;;;;;10141231;28;20560;-58
2023/05/04 13:23:29;;;;;;;3.30;2.63;;;30.60;75.80;;;;;;10156085;28;20033;-54
2023/05/04 13:28:20;;;;;;;4.35;3.03;;;31.70;74.30;;;;;;10163524;28;20075;-55
2023/05/04 13:33:11;;;;;;;10.20;6.77;;;32.50;73.00;;;;;;10150328;28;20651;-63
2023/05/04 13:38:01;;;;;;;2.90;2.60;;;32.80;71.50;;;;;;10145116;28;20036;-62
2023/05/04 13:42:52;;;;;;;3.28;2.30;;;31.90;70.30;;;;;;10155707;28;20033;-61
2023/05/04 13:47:43;;;;;;;2.85;2.25;;;31.90;69.60;;;;;;10150672;28;20082;-60
2023/05/04 13:52:35;;;;;;;3.05;2.60;;;31.80;67.90;;;;;;10138655;28;20049;-62
2023/05/04 13:57:28;;;;;;;3.07;2.00;;;32.90;66.50;;;;;;10152646;28;20060;-63
2023/05/04 14:02:19;;;;;;;2.20;1.92;;;33.20;65.40;;;;;;10143657;28;20291;-60
2023/05/04 14:07:10;;;;;;;3.85;3.15;;;33.50;63.70;;;;;;10138671;28;20029;-61
2023/05/04 14:12:02;;;;;;;2.40;2.00;;;33.70;62.90;;;;;;10143497;28;20052;-66
2023/05/04 14:16:53;;;;;;;4.07;3.17;;;33.50;61.90;;;;;;10142799;28;20218;-62
2023/05/04 14:21:43;;;;;;;2.90;2.57;;;33.40;61.60;;;;;;10138410;28;20246;-62
2023/05/04 14:26:34;;;;;;;2.53;1.93;;;32.50;61.60;;;;;;10142883;28;20047;-61
2023/05/04 14:31:25;;;;;;;2.87;2.67;;;32.10;61.00;;;;;;10144401;28;20124;-61
2023/05/04 14:36:15;;;;;;;3.67;2.20;;;32.20;60.60;;;;;;10137339;28;20032;-61
2023/05/04 14:41:07;;;;;;;2.43;1.70;;;32.30;60.30;;;;;;10153427;28;20035;-61
2023/05/04 14:45:58;;;;;;;3.03;2.35;;;32.60;60.00;;;;;;10159661;28;20078;-61
2023/05/04 14:50:48;;;;;;;2.47;2.28;;;32.30;59.60;;;;;;10140447;28;20052;-60
2023/05/04 14:55:40;;;;;;;3.50;2.75;;;32.40;59.10;;;;;;10154319;28;20085;-60
2023/05/04 15:00:31;;;;;;;2.50;2.30;;;32.90;58.60;;;;;;10158354;28;20032;-61
2023/05/04 15:05:22;;;;;;;3.90;2.20;;;33.70;57.80;;;;;;10138218;28;20513;-60
2023/05/04 15:10:13;;;;;;;2.50;2.30;;;34.50;57.20;;;;;;10140794;28;20033;-62
2023/05/04 15:15:04;;;;;;;2.30;2.10;;;34.50;56.60;;;;;;10147689;28;20085;-61
2023/05/04 15:19:55;;;;;;;2.38;2.17;;;34.90;55.70;;;;;;10138202;28;20036;-60
2023/05/04 15:24:46;;;;;;;2.60;2.40;;;35.10;55.30;;;;;;10144465;28;20020;-59
2023/05/04 15:29:36;;;;;;;4.03;2.80;;;35.40;54.90;;;;;;10156736;28;20260;-60
2023/05/04 15:34:27;;;;;;;3.90;2.50;;;36.10;54.40;;;;;;10145217;28;20012;-61
2023/05/04 15:39:17;;;;;;;3.27;2.63;;;35.60;54.40;;;;;;10145882;28;20071;-59
2023/05/04 15:44:08;;;;;;;3.83;2.37;;;35.50;54.00;;;;;;10160996;28;20746;-61
2023/05/04 15:48:59;;;;;;;3.75;2.15;;;35.50;53.50;;;;;;10153092;28;20067;-62
2023/05/04 15:53:50;;;;;;;4.73;3.50;;;36.30;52.60;;;;;;10132668;28;20271;-60
2023/05/04 15:58:42;;;;;;;4.05;2.70;;;37.50;51.70;;;;;;10129235;28;20037;-60
2023/05/04 16:03:33;;;;;;;3.30;2.10;;;38.20;50.70;;;;;;10127935;28;20513;-62
2023/05/04 16:08:24;;;;;;;4.75;3.28;;;37.90;50.20;;;;;;10134094;28;20397;-60
2023/05/04 16:13:15;;;;;;;3.60;2.78;;;37.80;50.10;;;;;;10130933;28;20016;-60
2023/05/04 16:18:06;;;;;;;2.60;2.07;;;39.00;49.30;;;;;;10139199;28;20044;-61
2023/05/04 16:22:56;;;;;;;2.93;2.73;;;38.70;49.00;;;;;;10149784;28;20032;-63
2023/05/04 16:27:47;;;;;;;4.97;2.20;;;39.70;48.30;;;;;;10166626;28;20042;-60
2023/05/04 16:32:38;;;;;;;3.70;2.80;;;39.60;47.50;;;;;;10153344;28;20071;-60
2023/05/04 16:37:28;;;;;;;3.08;2.30;;;34.80;50.80;;;;;;10146072;28;20032;-67
2023/05/04 16:42:19;;;;;;;3.70;2.97;;;35.50;50.30;;;;;;10155407;28;20123;-67
2023/05/04 16:47:09;;;;;;;5.37;2.80;;;38.30;48.10;;;;;;10158530;28;20032;-62
2023/05/04 16:52:01;;;;;;;4.87;3.67;;;39.10;47.50;;;;;;10160454;28;20064;-60
2023/05/04 16:56:51;;;;;;;4.18;3.20;;;38.50;48.00;;;;;;10169100;28;20104;-68
2023/05/04 17:01:42;;;;;;;5.73;3.33;;;38.00;48.30;;;;;;10133224;28;20181;-61
2023/05/04 17:06:34;;;;;;;3.60;2.67;;;38.20;48.10;;;;;;10153067;28;20520;-61
2023/05/04 17:11:25;;;;;;;;;;;36.80;48.80;;;;;;10132880;28;20474;-60
2023/05/04 17:16:16;;;;;;;2.45;2.25;;;36.80;48.60;;;;;;10155176;28;19916;-68
2023/05/04 17:21:06;;;;;;;4.70;2.63;;;34.90;50.40;;;;;;10147087;28;20208;-68
2023/05/04 17:26:00;;;;;;;4.93;2.60;;;34.00;50.80;;;;;;10160838;28;20028;-66
2023/05/04 17:30:51;;;;;;;4.20;2.65;;;32.40;52.00;;;;;;10128364;28;20078;-61
2023/05/04 17:35:41;;;;;;;6.55;3.75;;;30.40;53.60;;;;;;10147003;28;20035;-66
2023/05/04 17:40:32;;;;;;;6.25;3.80;;;29.20;54.20;;;;;;10142922;28;20032;-61
2023/05/04 17:45:22;;;;;;;4.80;3.55;;;28.60;54.50;;;;;;10157851;28;20551;-64
2023/05/04 17:50:13;;;;;;;4.95;3.53;;;28.00;55.00;;;;;;10164522;28;20045;-63
2023/05/04 17:55:04;;;;;;;4.38;3.05;;;27.50;55.40;;;;;;10159627;28;20036;-59
2023/05/04 17:59:55;;;;;;;4.80;3.70;;;27.50;55.60;;;;;;10152379;28;20047;-60
2023/05/04 18:04:45;;;;;;;10.02;4.82;;;27.10;56.10;;;;;;10145931;28;20058;-59
2023/05/04 18:09:36;;;;;;;6.70;4.70;;;27.20;56.10;;;;;;10147258;28;20028;-58
2023/05/04 18:14:27;;;;;;;7.13;4.53;;;27.20;56.40;;;;;;10152683;28;20043;-59
2023/05/04 18:19:23;;;;;;;7.00;5.38;;;27.00;56.60;;;;;;10144273;28;20071;-60
2023/05/04 18:24:13;;;;;;;9.38;4.65;;;27.00;57.10;;;;;;10156327;28;20035;-60
2023/05/04 18:29:04;;;;;;;7.70;4.60;;;26.80;57.40;;;;;;10168865;28;20528;-58
2023/05/04 18:33:56;;;;;;;8.68;5.88;;;26.70;57.70;;;;;;10141156;28;20028;-59
2023/05/04 18:38:50;;;;;;;6.97;5.07;;;26.50;58.10;;;;;;10140522;28;20113;-61
2023/05/04 18:43:41;;;;;;;;;;;26.30;58.50;;;;;;10151612;28;20024;-61
2023/05/04 18:48:31;;;;;;;8.63;5.80;;;26.10;58.90;;;;;;10164087;28;19924;-60
2023/05/04 18:53:23;;;;;;;9.90;5.82;;;25.90;58.80;;;;;;10161181;28;20032;-59
2023/05/04 18:58:13;;;;;;;8.85;6.22;;;25.80;59.30;;;;;;10153884;28;20482;-59
2023/05/04 19:03:04;;;;;;;13.73;7.95;;;25.70;59.70;;;;;;10136249;28;20028;-61
2023/05/04 19:07:55;;;;;;;7.90;5.75;;;25.50;60.60;;;;;;10138532;28;20121;-59
2023/05/04 19:12:46;;;;;;;13.75;8.88;;;25.40;60.20;;;;;;10141461;28;20035;-59
2023/05/04 19:17:36;;;;;;;8.85;6.90;;;25.30;60.40;;;;;;10141875;28;20074;-59
2023/05/04 19:22:27;;;;;;;10.25;6.78;;;25.10;60.70;;;;;;10142395;28;20032;-60
2023/05/04 19:27:17;;;;;;;14.18;8.50;;;25.10;61.10;;;;;;10140372;28;20111;-59
2023/05/04 19:32:08;;;;;;;11.30;7.32;;;25.00;61.50;;;;;;10133818;28;20024;-59
2023/05/04 19:36:59;;;;;;;12.50;8.38;;;24.90;62.00;;;;;;10133602;28;20044;-60
2023/05/04 19:41:49;;;;;;;10.52;7.53;;;24.90;62.10;;;;;;10134459;28;20480;-60
2023/05/04 19:46:41;;;;;;;10.45;7.00;;;24.80;62.50;;;;;;10139093;28;20028;-53
2023/05/04 19:51:32;;;;;;;17.02;7.90;;;24.60;62.90;;;;;;10151961;28;20052;-52
2023/05/04 19:56:22;;;;;;;10.50;7.35;;;24.60;63.20;;;;;;10141248;28;20573;-57
2023/05/04 20:01:13;;;;;;;11.50;6.72;;;24.50;63.50;;;;;;10138492;28;20050;-64
2023/05/04 20:06:04;;;;;;;11.77;7.85;;;24.50;63.90;;;;;;10106003;28;20036;-60
2023/05/04 20:10:54;;;;;;;13.25;7.40;;;24.40;64.20;;;;;;10116813;28;20126;-57
2023/05/04 20:15:45;;;;;;;15.27;9.80;;;24.40;64.40;;;;;;10129300;28;20107;-58
2023/05/04 20:20:36;;;;;;;12.27;8.52;;;24.40;64.60;;;;;;10147476;28;20059;-56
2023/05/04 20:25:26;;;;;;;11.48;7.82;;;24.30;64.80;;;;;;10138312;28;20024;-62
2023/05/04 20:30:17;;;;;;;18.02;10.27;;;24.20;65.00;;;;;;10146900;28;20036;-62
2023/05/04 20:35:08;;;;;;;9.45;6.20;;;24.20;65.10;;;;;;10145034;28;20056;-54
2023/05/04 20:39:59;;;;;;;9.32;5.18;;;23.90;65.50;;;;;;10139808;28;20079;-55
2023/05/04 20:44:49;;;;;;;8.35;5.03;;;23.70;65.80;;;;;;10123715;28;20020;-58
2023/05/04 20:49:40;;;;;;;6.03;4.10;;;23.60;65.90;;;;;;10153435;28;20048;-57
2023/05/04 20:54:30;;;;;;;7.22;4.50;;;23.50;66.10;;;;;;10157207;28;20029;-59
2023/05/04 20:59:21;;;;;;;8.43;4.50;;;23.50;66.30;;;;;;10140835;28;20029;-54
2023/05/04 21:04:13;;;;;;;6.43;3.83;;;23.40;66.70;;;;;;10163360;28;20040;-56
2023/05/04 21:09:04;;;;;;;7.30;5.22;;;23.40;66.80;;;;;;10155642;28;20056;-55
2023/05/04 21:13:55;;;;;;;9.23;4.30;;;23.40;67.20;;;;;;10136919;28;20382;-58
2023/05/04 21:18:45;;;;;;;5.22;4.35;;;23.30;67.10;;;;;;10137307;28;20042;-59
2023/05/04 21:23:36;;;;;;;8.55;4.55;;;23.20;67.50;;;;;;10128802;28;20437;-54
2023/05/04 21:28:27;;;;;;;6.10;4.88;;;23.20;67.60;;;;;;10144237;28;20024;-57
2023/05/04 21:33:18;;;;;;;7.47;4.72;;;23.30;67.50;;;;;;10133427;28;20542;-56
2023/05/04 21:38:08;;;;;;;5.18;4.30;;;23.40;67.40;;;;;;10132556;28;20225;-59
2023/05/04 21:43:00;;;;;;;9.13;5.53;;;23.30;67.50;;;;;;10136955;28;20029;-56
2023/05/04 21:47:51;;;;;;;9.23;5.25;;;23.20;67.50;;;;;;10142027;28;20043;-57
2023/05/04 21:52:41;;;;;;;7.60;4.82;;;23.20;67.80;;;;;;10147345;28;20336;-54
2023/05/04 21:57:32;;;;;;;7.70;4.63;;;23.00;68.00;;;;;;10175161;28;20072;-53
2023/05/04 22:02:23;;;;;;;7.93;4.78;;;23.00;68.20;;;;;;10160417;28;20104;-51
2023/05/04 22:07:14;;;;;;;5.88;3.78;;;23.00;68.40;;;;;;10140789;28;20059;-56
2023/05/04 22:12:06;;;;;;;7.50;3.65;;;22.90;68.60;;;;;;10143444;28;20024;-57
2023/05/04 22:16:56;;;;;;;8.93;4.63;;;22.90;68.40;;;;;;10142615;28;20196;-61
2023/05/04 22:21:47;;;;;;;6.60;3.50;;;22.90;68.80;;;;;;10159063;28;20307;-65
2023/05/04 22:26:39;;;;;;;6.72;4.55;;;22.70;69.00;;;;;;10123167;28;20124;-61
2023/05/04 22:31:30;;;;;;;5.90;4.60;;;22.60;69.30;;;;;;10148476;28;20036;-64
2023/05/04 22:36:20;;;;;;;8.07;4.80;;;22.60;69.70;;;;;;10157386;28;20040;-62
2023/05/04 22:41:13;;;;;;;8.85;5.05;;;22.60;69.80;;;;;;10137672;28;20051;-66
2023/05/04 22:46:03;;;;;;;11.23;5.60;;;22.50;70.10;;;;;;10139376;28;20570;-65
2023/05/04 22:50:54;;;;;;;7.88;4.75;;;22.50;70.60;;;;;;10160432;28;20135;-63
2023/05/04 22:55:46;;;;;;;7.05;3.97;;;22.40;70.60;;;;;;10121492;28;20112;-62
2023/05/04 23:00:37;;;;;;;7.28;3.83;;;22.30;70.90;;;;;;10138982;28;20123;-63
2023/05/04 23:05:27;;;;;;;7.80;4.70;;;22.30;71.00;;;;;;10138594;28;20467;-64
2023/05/04 23:10:18;;;;;;;8.82;5.05;;;22.30;71.30;;;;;;10129599;28;20036;-61
2023/05/04 23:15:09;;;;;;;8.80;5.00;;;22.20;71.70;;;;;;10143700;28;20066;-64
2023/05/04 23:20:00;;;;;;;11.70;4.63;;;22.20;72.10;;;;;;10137606;28;20036;-63
2023/05/04 23:24:50;;;;;;;7.68;5.03;;;22.00;72.40;;;;;;10138209;28;20024;-59
2023/05/04 23:29:41;;;;;;;8.15;4.63;;;22.00;72.70;;;;;;10149435;28;20087;-62
2023/05/04 23:34:32;;;;;;;6.18;4.57;;;21.80;72.90;;;;;;10137593;28;20024;-63
2023/05/04 23:39:22;;;;;;;7.70;4.30;;;21.70;73.40;;;;;;10158265;28;20047;-69
2023/05/04 23:44:13;;;;;;;8.68;5.57;;;21.70;73.60;;;;;;10162885;28;20028;-59
2023/05/04 23:49:04;;;;;;;6.15;4.43;;;21.60;74.10;;;;;;10140051;28;20067;-56
2023/05/04 23:53:54;;;;;;;6.60;4.05;;;21.70;74.40;;;;;;10136436;28;20033;-57
2023/05/04 23:58:45;;;;;;;5.28;4.38;;;21.50;74.70;;;;;;10125973;28;20401;-62
